Mountain Village, Alaska
Current Conditions -  °F | °C
As of 2:56 AM on Friday 31 Oct 2014 (Local Time) from PAMO Reporting Station
Clear Clear  
Wind Chill: -7°   Ceiling: Unl
Heat Index: 10°   Visibility: 10mi
Dew Point:   Wind: 15mph
Humidity: 80%   Direction: 50°NE
Pressure: 29.52"   Gusts: NA
Location:  62.09°N, 163.73°W
Report Text: PAMO 311056Z AUTO 05013KT 10SM CLR M12/M15 A2952 RMK AO2 TSNO T11221150 SLP882 $
Loading
Personal Weather Stations






























Interactive Weather Map New forecast layout! Learn more

10-Day Weather Forecast

Advertisements
Track Severe Weather on mobile